CML4 weather

Morrison Lake Seaplane Base
Gravenhurst, Ontario, Canada

Public forecast

Using degrees Celsius for public forecast. Weather courtesy of forecast.io.

METAR (pilot weather report)

Closest report is Muskoka Airport, 9.2 nm (17.0 km) NE. Retrieved 2019/05/19 21:14 UTC (43 minutes ago):

CYQA 192114Z AUTO 14009G15KT 100V160 9SM -RA FEW049 SCT060 SCT072 BKN100 21/16 A2966 RMK LTNG DIST W SLP048 DENSITY ALT 2100FT

TAF (pilot weather forecast)

Closest forecast is Muskoka Airport, 9.2 nm (17.0 km) NE. Retrieved 2019/05/19 20:00 UTC (2 hours ago):

TAF CYQA 191938Z 1920/2002 13010KT P6SM BKN060 TEMPO 1920/1922 4SM -SHRA VCTS BR BKN060CB FM192200 15012G22KT P6SM BKN040 TEMPO 1922/2002 5SM -SHRA BR PROB30 1922/2002 VRB15G30KT 2SM TSRA BR BKN040CB RMK FCST BASED ON AUTO OBS. NXT FCST WILL BE ISSUED AT 201145Z